sensor_id;sensor_type;location;lat;lon;timestamp;temperature;humidity
47310;DHT22;33046;52.270;6.832;2023-03-11T00:00:29;3.10;99.90
47310;DHT22;33046;52.270;6.832;2023-03-11T00:02:36;3.10;99.90
47310;DHT22;33046;52.270;6.832;2023-03-11T00:04:43;3.10;99.90
47310;DHT22;33046;52.270;6.832;2023-03-11T00:06:50;3.10;99.90
47310;DHT22;33046;52.270;6.832;2023-03-11T00:08:56;3.10;99.90
47310;DHT22;33046;52.270;6.832;2023-03-11T00:11:03;3.10;99.90
47310;DHT22;33046;52.270;6.832;2023-03-11T00:13:12;3.10;99.90
47310;DHT22;33046;52.270;6.832;2023-03-11T00:15:19;3.10;99.90
47310;DHT22;33046;52.270;6.832;2023-03-11T00:17:28;3.10;99.90
47310;DHT22;33046;52.270;6.832;2023-03-11T00:19:34;3.10;99.90
47310;DHT22;33046;52.270;6.832;2023-03-11T00:21:41;3.10;99.90
47310;DHT22;33046;52.270;6.832;2023-03-11T00:23:48;3.10;99.90
47310;DHT22;33046;52.270;6.832;2023-03-11T00:25:55;3.10;99.90
47310;DHT22;33046;52.270;6.832;2023-03-11T00:28:02;3.10;99.90
47310;DHT22;33046;52.270;6.832;2023-03-11T00:30:10;3.10;99.90
47310;DHT22;33046;52.270;6.832;2023-03-11T00:32:18;3.10;99.90
47310;DHT22;33046;52.270;6.832;2023-03-11T00:34:26;3.10;99.90
47310;DHT22;33046;52.270;6.832;2023-03-11T00:36:33;3.10;99.90
47310;DHT22;33046;52.270;6.832;2023-03-11T00:38:40;3.10;99.90
47310;DHT22;33046;52.270;6.832;2023-03-11T00:40:48;3.10;99.90
47310;DHT22;33046;52.270;6.832;2023-03-11T00:42:55;3.10;99.90
47310;DHT22;33046;52.270;6.832;2023-03-11T00:45:02;3.10;99.90
47310;DHT22;33046;52.270;6.832;2023-03-11T00:47:10;3.10;99.90
47310;DHT22;33046;52.270;6.832;2023-03-11T00:49:17;3.10;99.90
47310;DHT22;33046;52.270;6.832;2023-03-11T00:51:25;3.10;99.90
47310;DHT22;33046;52.270;6.832;2023-03-11T00:53:32;3.00;99.90
47310;DHT22;33046;52.270;6.832;2023-03-11T00:55:38;3.10;99.90
47310;DHT22;33046;52.270;6.832;2023-03-11T00:57:51;3.10;99.90
47310;DHT22;33046;52.270;6.832;2023-03-11T00:59:58;3.10;99.90
47310;DHT22;33046;52.270;6.832;2023-03-11T01:02:05;3.10;99.90
47310;DHT22;33046;52.270;6.832;2023-03-11T01:04:12;3.00;99.90
47310;DHT22;33046;52.270;6.832;2023-03-11T01:06:19;3.00;99.90
47310;DHT22;33046;52.270;6.832;2023-03-11T01:08:27;3.10;99.90
47310;DHT22;33046;52.270;6.832;2023-03-11T01:10:34;3.10;99.90
47310;DHT22;33046;52.270;6.832;2023-03-11T01:12:41;3.10;99.90
47310;DHT22;33046;52.270;6.832;2023-03-11T01:14:48;3.10;99.90
47310;DHT22;33046;52.270;6.832;2023-03-11T01:16:55;3.10;99.90
47310;DHT22;33046;52.270;6.832;2023-03-11T01:19:02;3.10;99.90
47310;DHT22;33046;52.270;6.832;2023-03-11T01:21:09;3.10;99.90
47310;DHT22;33046;52.270;6.832;2023-03-11T01:23:19;3.10;99.90
47310;DHT22;33046;52.270;6.832;2023-03-11T01:25:28;3.10;99.90
47310;DHT22;33046;52.270;6.832;2023-03-11T01:27:36;3.10;99.90
47310;DHT22;33046;52.270;6.832;2023-03-11T01:29:43;3.10;99.90
47310;DHT22;33046;52.270;6.832;2023-03-11T01:31:50;3.10;99.90
47310;DHT22;33046;52.270;6.832;2023-03-11T01:33:57;3.00;99.90
47310;DHT22;33046;52.270;6.832;2023-03-11T01:36:06;3.10;99.90
47310;DHT22;33046;52.270;6.832;2023-03-11T01:38:13;3.00;99.90
47310;DHT22;33046;52.270;6.832;2023-03-11T01:40:26;3.00;99.90
47310;DHT22;33046;52.270;6.832;2023-03-11T01:42:36;3.00;99.90
47310;DHT22;33046;52.270;6.832;2023-03-11T01:44:44;3.00;99.90
47310;DHT22;33046;52.270;6.832;2023-03-11T01:47:32;3.10;99.90
47310;DHT22;33046;52.270;6.832;2023-03-11T01:49:40;3.00;99.90
47310;DHT22;33046;52.270;6.832;2023-03-11T01:51:48;3.00;99.90
47310;DHT22;33046;52.270;6.832;2023-03-11T01:53:59;3.00;99.90
47310;DHT22;33046;52.270;6.832;2023-03-11T01:56:07;3.00;99.90
47310;DHT22;33046;52.270;6.832;2023-03-11T01:58:21;3.00;99.90
47310;DHT22;33046;52.270;6.832;2023-03-11T02:00:29;3.00;99.90
47310;DHT22;33046;52.270;6.832;2023-03-11T02:02:40;3.10;99.90
47310;DHT22;33046;52.270;6.832;2023-03-11T02:04:48;3.00;99.90
47310;DHT22;33046;52.270;6.832;2023-03-11T02:06:55;3.10;99.90
47310;DHT22;33046;52.270;6.832;2023-03-11T02:09:02;3.00;99.90
47310;DHT22;33046;52.270;6.832;2023-03-11T02:11:12;3.00;99.90
47310;DHT22;33046;52.270;6.832;2023-03-11T02:13:21;3.10;99.90
47310;DHT22;33046;52.270;6.832;2023-03-11T02:15:29;3.00;99.90
47310;DHT22;33046;52.270;6.832;2023-03-11T02:17:39;3.10;99.90
47310;DHT22;33046;52.270;6.832;2023-03-11T02:19:56;3.10;99.90
47310;DHT22;33046;52.270;6.832;2023-03-11T02:22:05;3.10;99.90
47310;DHT22;33046;52.270;6.832;2023-03-11T02:24:16;3.10;99.90
47310;DHT22;33046;52.270;6.832;2023-03-11T02:26:30;3.10;99.90
47310;DHT22;33046;52.270;6.832;2023-03-11T02:28:41;3.10;99.90
47310;DHT22;33046;52.270;6.832;2023-03-11T02:30:49;3.10;99.90
47310;DHT22;33046;52.270;6.832;2023-03-11T02:32:56;3.10;99.90
47310;DHT22;33046;52.270;6.832;2023-03-11T02:35:04;3.10;99.90
47310;DHT22;33046;52.270;6.832;2023-03-11T02:37:13;3.10;99.90
47310;DHT22;33046;52.270;6.832;2023-03-11T02:39:29;3.10;99.90
47310;DHT22;33046;52.270;6.832;2023-03-11T02:41:39;3.00;99.90
47310;DHT22;33046;52.270;6.832;2023-03-11T02:43:48;3.00;99.90
47310;DHT22;33046;52.270;6.832;2023-03-11T02:45:57;3.00;99.90
47310;DHT22;33046;52.270;6.832;2023-03-11T02:48:04;3.00;99.90
47310;DHT22;33046;52.270;6.832;2023-03-11T02:50:14;3.00;99.90
47310;DHT22;33046;52.270;6.832;2023-03-11T02:52:24;3.00;99.90
47310;DHT22;33046;52.270;6.832;2023-03-11T02:54:31;3.00;99.90
47310;DHT22;33046;52.270;6.832;2023-03-11T02:56:38;3.00;99.90
47310;DHT22;33046;52.270;6.832;2023-03-11T02:58:45;2.90;99.90
47310;DHT22;33046;52.270;6.832;2023-03-11T03:00:53;3.00;99.90
47310;DHT22;33046;52.270;6.832;2023-03-11T03:03:00;2.90;99.90
47310;DHT22;33046;52.270;6.832;2023-03-11T03:05:08;2.90;99.90
47310;DHT22;33046;52.270;6.832;2023-03-11T03:07:15;2.90;99.90
47310;DHT22;33046;52.270;6.832;2023-03-11T03:09:22;2.90;99.90
47310;DHT22;33046;52.270;6.832;2023-03-11T03:11:29;2.90;99.90
47310;DHT22;33046;52.270;6.832;2023-03-11T03:13:36;2.90;99.90
47310;DHT22;33046;52.270;6.832;2023-03-11T03:15:42;2.90;99.90
47310;DHT22;33046;52.270;6.832;2023-03-11T03:17:51;2.90;99.90
47310;DHT22;33046;52.270;6.832;2023-03-11T03:19:57;2.90;99.90
47310;DHT22;33046;52.270;6.832;2023-03-11T03:22:04;2.90;99.90
47310;DHT22;33046;52.270;6.832;2023-03-11T03:24:12;2.90;99.90
47310;DHT22;33046;52.270;6.832;2023-03-11T03:26:19;2.90;99.90
47310;DHT22;33046;52.270;6.832;2023-03-11T03:28:27;2.90;99.90
47310;DHT22;33046;52.270;6.832;2023-03-11T03:30:34;2.90;99.90
47310;DHT22;33046;52.270;6.832;2023-03-11T03:32:41;2.90;99.90
47310;DHT22;33046;52.270;6.832;2023-03-11T03:34:53;2.90;99.90
47310;DHT22;33046;52.270;6.832;2023-03-11T03:36:59;2.90;99.90
47310;DHT22;33046;52.270;6.832;2023-03-11T03:39:06;2.90;99.90
47310;DHT22;33046;52.270;6.832;2023-03-11T03:41:15;3.00;99.90
47310;DHT22;33046;52.270;6.832;2023-03-11T03:43:23;3.00;99.90
47310;DHT22;33046;52.270;6.832;2023-03-11T03:45:30;2.90;99.90
47310;DHT22;33046;52.270;6.832;2023-03-11T03:47:37;2.90;99.90
47310;DHT22;33046;52.270;6.832;2023-03-11T03:49:45;2.90;99.90
47310;DHT22;33046;52.270;6.832;2023-03-11T03:51:53;2.90;99.90
47310;DHT22;33046;52.270;6.832;2023-03-11T03:54:08;2.90;99.90
47310;DHT22;33046;52.270;6.832;2023-03-11T03:56:17;2.90;99.90
47310;DHT22;33046;52.270;6.832;2023-03-11T03:58:24;2.90;99.90
47310;DHT22;33046;52.270;6.832;2023-03-11T04:00:31;2.90;99.90
47310;DHT22;33046;52.270;6.832;2023-03-11T04:02:41;2.90;99.90
47310;DHT22;33046;52.270;6.832;2023-03-11T04:04:56;2.90;99.90
47310;DHT22;33046;52.270;6.832;2023-03-11T04:07:05;2.90;99.90
47310;DHT22;33046;52.270;6.832;2023-03-11T04:09:14;2.90;99.90
47310;DHT22;33046;52.270;6.832;2023-03-11T04:11:22;2.90;99.90
47310;DHT22;33046;52.270;6.832;2023-03-11T04:13:29;2.90;99.90
47310;DHT22;33046;52.270;6.832;2023-03-11T04:15:36;2.90;99.90
47310;DHT22;33046;52.270;6.832;2023-03-11T04:17:43;2.90;99.90
47310;DHT22;33046;52.270;6.832;2023-03-11T04:19:51;2.90;99.90
47310;DHT22;33046;52.270;6.832;2023-03-11T04:21:58;2.90;99.90
47310;DHT22;33046;52.270;6.832;2023-03-11T04:24:08;2.90;99.90
47310;DHT22;33046;52.270;6.832;2023-03-11T04:26:16;2.90;99.90
47310;DHT22;33046;52.270;6.832;2023-03-11T04:28:23;2.90;99.90
47310;DHT22;33046;52.270;6.832;2023-03-11T04:30:31;2.90;99.90
47310;DHT22;33046;52.270;6.832;2023-03-11T04:32:38;2.90;99.90
47310;DHT22;33046;52.270;6.832;2023-03-11T04:34:45;2.90;99.90
47310;DHT22;33046;52.270;6.832;2023-03-11T04:36:53;2.90;99.90
47310;DHT22;33046;52.270;6.832;2023-03-11T04:39:07;2.90;99.90
47310;DHT22;33046;52.270;6.832;2023-03-11T04:41:19;2.90;99.90
47310;DHT22;33046;52.270;6.832;2023-03-11T04:43:26;2.90;99.90
47310;DHT22;33046;52.270;6.832;2023-03-11T04:45:33;2.90;99.90
47310;DHT22;33046;52.270;6.832;2023-03-11T04:47:41;2.90;99.90
47310;DHT22;33046;52.270;6.832;2023-03-11T04:49:48;2.90;99.90
47310;DHT22;33046;52.270;6.832;2023-03-11T04:51:55;2.80;99.90
47310;DHT22;33046;52.270;6.832;2023-03-11T04:54:04;2.80;99.90
47310;DHT22;33046;52.270;6.832;2023-03-11T04:56:13;2.80;99.90
47310;DHT22;33046;52.270;6.832;2023-03-11T04:58:21;2.80;99.90
47310;DHT22;33046;52.270;6.832;2023-03-11T05:00:28;2.80;99.90
47310;DHT22;33046;52.270;6.832;2023-03-11T05:02:42;2.80;99.90
47310;DHT22;33046;52.270;6.832;2023-03-11T05:04:50;2.80;99.90
47310;DHT22;33046;52.270;6.832;2023-03-11T05:06:57;2.80;99.90
47310;DHT22;33046;52.270;6.832;2023-03-11T05:09:05;2.80;99.90
47310;DHT22;33046;52.270;6.832;2023-03-11T05:11:16;2.70;99.90
47310;DHT22;33046;52.270;6.832;2023-03-11T05:13:26;2.70;99.90
47310;DHT22;33046;52.270;6.832;2023-03-11T05:15:33;2.70;99.90
47310;DHT22;33046;52.270;6.832;2023-03-11T05:17:41;2.70;99.90
47310;DHT22;33046;52.270;6.832;2023-03-11T05:19:49;2.70;99.90
47310;DHT22;33046;52.270;6.832;2023-03-11T05:22:01;2.70;99.90
47310;DHT22;33046;52.270;6.832;2023-03-11T05:24:08;2.70;99.90
47310;DHT22;33046;52.270;6.832;2023-03-11T05:26:16;2.70;99.90
47310;DHT22;33046;52.270;6.832;2023-03-11T05:28:24;2.70;99.90
47310;DHT22;33046;52.270;6.832;2023-03-11T05:30:32;2.60;99.90
47310;DHT22;33046;52.270;6.832;2023-03-11T05:32:39;2.60;99.90
47310;DHT22;33046;52.270;6.832;2023-03-11T05:34:46;2.60;99.90
47310;DHT22;33046;52.270;6.832;2023-03-11T05:36:54;2.60;99.90
47310;DHT22;33046;52.270;6.832;2023-03-11T05:39:02;2.60;99.90
47310;DHT22;33046;52.270;6.832;2023-03-11T05:41:11;2.60;99.90
47310;DHT22;33046;52.270;6.832;2023-03-11T05:43:22;2.60;99.90
47310;DHT22;33046;52.270;6.832;2023-03-11T05:45:33;2.60;99.90
47310;DHT22;33046;52.270;6.832;2023-03-11T05:47:41;2.60;99.90
47310;DHT22;33046;52.270;6.832;2023-03-11T05:49:49;2.60;99.90
47310;DHT22;33046;52.270;6.832;2023-03-11T05:51:58;2.60;99.90
47310;DHT22;33046;52.270;6.832;2023-03-11T05:54:06;2.60;99.90
47310;DHT22;33046;52.270;6.832;2023-03-11T05:56:19;2.60;99.90
47310;DHT22;33046;52.270;6.832;2023-03-11T05:58:29;2.60;99.90
47310;DHT22;33046;52.270;6.832;2023-03-11T06:00:37;2.60;99.90
47310;DHT22;33046;52.270;6.832;2023-03-11T06:02:45;2.60;99.90
47310;DHT22;33046;52.270;6.832;2023-03-11T06:04:55;2.60;99.90
47310;DHT22;33046;52.270;6.832;2023-03-11T06:07:02;2.60;99.90
47310;DHT22;33046;52.270;6.832;2023-03-11T06:09:14;2.60;99.90
47310;DHT22;33046;52.270;6.832;2023-03-11T06:11:22;2.50;99.90
47310;DHT22;33046;52.270;6.832;2023-03-11T06:13:30;2.60;99.90
47310;DHT22;33046;52.270;6.832;2023-03-11T06:15:38;2.60;99.90
47310;DHT22;33046;52.270;6.832;2023-03-11T06:17:45;2.50;99.90
47310;DHT22;33046;52.270;6.832;2023-03-11T06:19:52;2.60;99.90
47310;DHT22;33046;52.270;6.832;2023-03-11T06:22:00;2.60;99.90
47310;DHT22;33046;52.270;6.832;2023-03-11T06:24:08;2.50;99.90
47310;DHT22;33046;52.270;6.832;2023-03-11T06:26:18;2.60;99.90
47310;DHT22;33046;52.270;6.832;2023-03-11T06:28:26;2.50;99.90
47310;DHT22;33046;52.270;6.832;2023-03-11T06:30:34;2.60;99.90
47310;DHT22;33046;52.270;6.832;2023-03-11T06:32:47;2.50;99.90
47310;DHT22;33046;52.270;6.832;2023-03-11T06:34:54;2.50;99.90
47310;DHT22;33046;52.270;6.832;2023-03-11T06:37:02;2.50;99.90
47310;DHT22;33046;52.270;6.832;2023-03-11T06:39:11;2.50;99.90
47310;DHT22;33046;52.270;6.832;2023-03-11T06:41:19;2.50;99.90
47310;DHT22;33046;52.270;6.832;2023-03-11T06:43:26;2.50;99.90
47310;DHT22;33046;52.270;6.832;2023-03-11T06:45:35;2.50;99.90
47310;DHT22;33046;52.270;6.832;2023-03-11T06:47:42;2.50;99.90
47310;DHT22;33046;52.270;6.832;2023-03-11T06:49:49;2.50;99.90
47310;DHT22;33046;52.270;6.832;2023-03-11T06:51:56;2.50;99.90
47310;DHT22;33046;52.270;6.832;2023-03-11T06:54:04;2.50;99.90
47310;DHT22;33046;52.270;6.832;2023-03-11T06:56:12;2.50;99.90
47310;DHT22;33046;52.270;6.832;2023-03-11T06:58:27;2.50;99.90
47310;DHT22;33046;52.270;6.832;2023-03-11T07:00:36;2.50;99.90
47310;DHT22;33046;52.270;6.832;2023-03-11T07:02:43;2.50;99.90
47310;DHT22;33046;52.270;6.832;2023-03-11T07:04:51;2.50;99.90
47310;DHT22;33046;52.270;6.832;2023-03-11T07:06:59;2.50;99.90
47310;DHT22;33046;52.270;6.832;2023-03-11T07:09:05;2.50;99.90
47310;DHT22;33046;52.270;6.832;2023-03-11T07:11:17;2.50;99.90
47310;DHT22;33046;52.270;6.832;2023-03-11T07:13:24;2.50;99.90
47310;DHT22;33046;52.270;6.832;2023-03-11T07:15:32;2.50;99.90
47310;DHT22;33046;52.270;6.832;2023-03-11T07:17:40;2.50;99.90
47310;DHT22;33046;52.270;6.832;2023-03-11T07:19:47;2.50;99.90
47310;DHT22;33046;52.270;6.832;2023-03-11T07:21:54;2.60;99.90
47310;DHT22;33046;52.270;6.832;2023-03-11T07:24:02;2.60;99.90
47310;DHT22;33046;52.270;6.832;2023-03-11T07:26:09;2.60;99.90
47310;DHT22;33046;52.270;6.832;2023-03-11T07:28:16;2.60;99.90
47310;DHT22;33046;52.270;6.832;2023-03-11T07:30:23;2.60;99.90
47310;DHT22;33046;52.270;6.832;2023-03-11T07:32:30;2.60;99.90
47310;DHT22;33046;52.270;6.832;2023-03-11T07:34:38;2.60;99.90
47310;DHT22;33046;52.270;6.832;2023-03-11T07:36:44;2.70;99.90
47310;DHT22;33046;52.270;6.832;2023-03-11T07:38:54;2.70;99.90
47310;DHT22;33046;52.270;6.832;2023-03-11T07:41:01;2.60;99.90
47310;DHT22;33046;52.270;6.832;2023-03-11T07:43:08;2.60;99.90
47310;DHT22;33046;52.270;6.832;2023-03-11T07:45:15;2.70;99.90
47310;DHT22;33046;52.270;6.832;2023-03-11T07:47:22;2.70;99.90
47310;DHT22;33046;52.270;6.832;2023-03-11T07:49:29;2.70;99.90
47310;DHT22;33046;52.270;6.832;2023-03-11T07:51:38;2.70;99.90
47310;DHT22;33046;52.270;6.832;2023-03-11T07:53:45;2.70;99.90
47310;DHT22;33046;52.270;6.832;2023-03-11T07:55:54;2.70;99.90
47310;DHT22;33046;52.270;6.832;2023-03-11T07:58:01;2.70;99.90
47310;DHT22;33046;52.270;6.832;2023-03-11T08:00:09;2.80;99.90
47310;DHT22;33046;52.270;6.832;2023-03-11T08:02:19;2.80;99.90
47310;DHT22;33046;52.270;6.832;2023-03-11T08:04:26;2.90;99.90
47310;DHT22;33046;52.270;6.832;2023-03-11T08:06:34;2.80;99.90
47310;DHT22;33046;52.270;6.832;2023-03-11T08:08:43;2.80;99.90
47310;DHT22;33046;52.270;6.832;2023-03-11T08:10:49;2.90;99.90
47310;DHT22;33046;52.270;6.832;2023-03-11T08:12:56;2.90;99.90
47310;DHT22;33046;52.270;6.832;2023-03-11T08:15:04;2.90;99.90
47310;DHT22;33046;52.270;6.832;2023-03-11T08:17:11;2.90;99.90
47310;DHT22;33046;52.270;6.832;2023-03-11T08:19:17;2.90;99.90
47310;DHT22;33046;52.270;6.832;2023-03-11T08:21:27;3.00;99.90
47310;DHT22;33046;52.270;6.832;2023-03-11T08:23:34;3.00;99.90
47310;DHT22;33046;52.270;6.832;2023-03-11T08:25:42;3.00;99.90
47310;DHT22;33046;52.270;6.832;2023-03-11T08:27:49;3.00;99.90
47310;DHT22;33046;52.270;6.832;2023-03-11T08:29:56;3.10;99.90
47310;DHT22;33046;52.270;6.832;2023-03-11T08:32:03;3.10;99.90
47310;DHT22;33046;52.270;6.832;2023-03-11T08:34:11;3.10;99.90
47310;DHT22;33046;52.270;6.832;2023-03-11T08:36:18;3.10;99.90
47310;DHT22;33046;52.270;6.832;2023-03-11T08:38:25;3.20;99.90
47310;DHT22;33046;52.270;6.832;2023-03-11T08:40:32;3.20;99.90
47310;DHT22;33046;52.270;6.832;2023-03-11T08:42:40;3.20;99.90
47310;DHT22;33046;52.270;6.832;2023-03-11T08:44:47;3.20;99.90
47310;DHT22;33046;52.270;6.832;2023-03-11T08:46:54;3.20;99.90
47310;DHT22;33046;52.270;6.832;2023-03-11T08:49:01;3.20;99.90
47310;DHT22;33046;52.270;6.832;2023-03-11T08:51:09;3.20;99.90
47310;DHT22;33046;52.270;6.832;2023-03-11T08:53:16;3.20;99.90
47310;DHT22;33046;52.270;6.832;2023-03-11T08:55:23;3.20;99.90
47310;DHT22;33046;52.270;6.832;2023-03-11T08:57:30;3.30;99.90
47310;DHT22;33046;52.270;6.832;2023-03-11T08:59:39;3.30;99.90
47310;DHT22;33046;52.270;6.832;2023-03-11T09:01:45;3.30;99.90
47310;DHT22;33046;52.270;6.832;2023-03-11T09:03:52;3.30;99.90
47310;DHT22;33046;52.270;6.832;2023-03-11T09:06:00;3.30;99.90
47310;DHT22;33046;52.270;6.832;2023-03-11T09:08:07;3.40;99.90
47310;DHT22;33046;52.270;6.832;2023-03-11T09:10:15;3.40;99.90
47310;DHT22;33046;52.270;6.832;2023-03-11T09:12:21;3.40;99.90
47310;DHT22;33046;52.270;6.832;2023-03-11T09:14:28;3.40;99.90
47310;DHT22;33046;52.270;6.832;2023-03-11T09:16:36;3.40;99.90
47310;DHT22;33046;52.270;6.832;2023-03-11T09:18:43;3.50;99.90
47310;DHT22;33046;52.270;6.832;2023-03-11T09:20:50;3.50;99.90
47310;DHT22;33046;52.270;6.832;2023-03-11T09:22:57;3.50;99.90
47310;DHT22;33046;52.270;6.832;2023-03-11T09:25:04;3.50;99.90
47310;DHT22;33046;52.270;6.832;2023-03-11T09:27:11;3.50;99.90
47310;DHT22;33046;52.270;6.832;2023-03-11T09:29:18;3.50;99.90
47310;DHT22;33046;52.270;6.832;2023-03-11T09:31:25;3.60;99.90
47310;DHT22;33046;52.270;6.832;2023-03-11T09:33:37;3.60;99.90
47310;DHT22;33046;52.270;6.832;2023-03-11T09:35:44;3.60;99.90
47310;DHT22;33046;52.270;6.832;2023-03-11T09:37:51;3.60;99.90
47310;DHT22;33046;52.270;6.832;2023-03-11T09:39:58;3.60;99.90
47310;DHT22;33046;52.270;6.832;2023-03-11T09:42:14;3.70;99.90
47310;DHT22;33046;52.270;6.832;2023-03-11T09:44:29;3.70;99.90
47310;DHT22;33046;52.270;6.832;2023-03-11T09:47:10;3.80;99.90
47310;DHT22;33046;52.270;6.832;2023-03-11T09:49:30;3.80;99.90
47310;DHT22;33046;52.270;6.832;2023-03-11T09:51:43;3.80;99.90
47310;DHT22;33046;52.270;6.832;2023-03-11T09:53:54;3.80;99.90
47310;DHT22;33046;52.270;6.832;2023-03-11T09:56:04;3.90;99.90
47310;DHT22;33046;52.270;6.832;2023-03-11T09:58:14;3.90;99.90
47310;DHT22;33046;52.270;6.832;2023-03-11T10:00:23;3.90;99.90
47310;DHT22;33046;52.270;6.832;2023-03-11T10:02:30;3.90;99.90
47310;DHT22;33046;52.270;6.832;2023-03-11T10:04:42;4.00;99.90
47310;DHT22;33046;52.270;6.832;2023-03-11T10:06:51;4.00;99.90
47310;DHT22;33046;52.270;6.832;2023-03-11T10:09:02;4.00;99.90
47310;DHT22;33046;52.270;6.832;2023-03-11T10:11:18;4.10;99.90
47310;DHT22;33046;52.270;6.832;2023-03-11T10:13:34;4.10;99.90
47310;DHT22;33046;52.270;6.832;2023-03-11T10:15:47;4.10;99.90
47310;DHT22;33046;52.270;6.832;2023-03-11T10:18:20;4.10;99.90
47310;DHT22;33046;52.270;6.832;2023-03-11T10:20:35;4.20;99.90
47310;DHT22;33046;52.270;6.832;2023-03-11T10:22:46;4.20;99.90
47310;DHT22;33046;52.270;6.832;2023-03-11T10:25:03;4.20;99.90
47310;DHT22;33046;52.270;6.832;2023-03-11T10:27:15;4.30;99.90
47310;DHT22;33046;52.270;6.832;2023-03-11T10:29:25;4.30;99.90
47310;DHT22;33046;52.270;6.832;2023-03-11T10:31:36;4.30;99.90
47310;DHT22;33046;52.270;6.832;2023-03-11T10:33:47;4.30;99.90
47310;DHT22;33046;52.270;6.832;2023-03-11T10:36:00;4.30;99.90
47310;DHT22;33046;52.270;6.832;2023-03-11T10:38:13;4.30;99.90
47310;DHT22;33046;52.270;6.832;2023-03-11T10:40:29;4.30;99.90
47310;DHT22;33046;52.270;6.832;2023-03-11T10:42:37;4.30;99.90
47310;DHT22;33046;52.270;6.832;2023-03-11T10:44:44;4.30;99.90
47310;DHT22;33046;52.270;6.832;2023-03-11T10:46:51;4.30;99.90
47310;DHT22;33046;52.270;6.832;2023-03-11T10:48:58;4.40;99.90
47310;DHT22;33046;52.270;6.832;2023-03-11T10:51:14;4.40;99.90
47310;DHT22;33046;52.270;6.832;2023-03-11T10:53:22;4.40;99.90
47310;DHT22;33046;52.270;6.832;2023-03-11T10:55:28;4.40;99.90
47310;DHT22;33046;52.270;6.832;2023-03-11T10:57:36;4.50;99.90
47310;DHT22;33046;52.270;6.832;2023-03-11T10:59:46;4.50;99.90
47310;DHT22;33046;52.270;6.832;2023-03-11T11:01:54;4.50;99.90
47310;DHT22;33046;52.270;6.832;2023-03-11T11:04:01;4.50;99.90
47310;DHT22;33046;52.270;6.832;2023-03-11T11:06:18;4.50;99.90
47310;DHT22;33046;52.270;6.832;2023-03-11T11:08:27;4.50;99.90
47310;DHT22;33046;52.270;6.832;2023-03-11T11:10:35;4.50;99.90
47310;DHT22;33046;52.270;6.832;2023-03-11T11:12:52;4.50;99.90
47310;DHT22;33046;52.270;6.832;2023-03-11T11:14:59;4.60;99.90
47310;DHT22;33046;52.270;6.832;2023-03-11T11:17:16;4.50;99.90
47310;DHT22;33046;52.270;6.832;2023-03-11T11:19:23;4.60;99.90
47310;DHT22;33046;52.270;6.832;2023-03-11T11:21:33;4.60;99.90
47310;DHT22;33046;52.270;6.832;2023-03-11T11:23:42;4.70;99.90
47310;DHT22;33046;52.270;6.832;2023-03-11T11:25:56;4.70;99.90
47310;DHT22;33046;52.270;6.832;2023-03-11T11:28:14;4.70;99.90
47310;DHT22;33046;52.270;6.832;2023-03-11T11:30:22;4.70;99.90
47310;DHT22;33046;52.270;6.832;2023-03-11T11:32:28;4.70;99.90
47310;DHT22;33046;52.270;6.832;2023-03-11T11:34:35;4.70;99.90
47310;DHT22;33046;52.270;6.832;2023-03-11T11:36:43;4.80;99.90
47310;DHT22;33046;52.270;6.832;2023-03-11T11:38:52;4.80;99.90
47310;DHT22;33046;52.270;6.832;2023-03-11T11:41:02;4.80;99.90
47310;DHT22;33046;52.270;6.832;2023-03-11T11:43:13;4.80;99.90
47310;DHT22;33046;52.270;6.832;2023-03-11T11:45:28;4.80;99.90
47310;DHT22;33046;52.270;6.832;2023-03-11T11:47:38;4.80;99.90
47310;DHT22;33046;52.270;6.832;2023-03-11T11:49:51;4.90;99.90
47310;DHT22;33046;52.270;6.832;2023-03-11T11:52:04;4.90;99.90
47310;DHT22;33046;52.270;6.832;2023-03-11T11:54:15;4.90;99.90
47310;DHT22;33046;52.270;6.832;2023-03-11T11:56:23;4.90;99.90
47310;DHT22;33046;52.270;6.832;2023-03-11T11:58:31;4.90;99.90
47310;DHT22;33046;52.270;6.832;2023-03-11T12:00:44;4.90;99.90
47310;DHT22;33046;52.270;6.832;2023-03-11T12:03:05;5.00;99.90
47310;DHT22;33046;52.270;6.832;2023-03-11T12:05:16;5.00;99.90
47310;DHT22;33046;52.270;6.832;2023-03-11T12:07:38;5.00;99.90
47310;DHT22;33046;52.270;6.832;2023-03-11T12:09:51;5.00;99.90
47310;DHT22;33046;52.270;6.832;2023-03-11T12:12:07;5.00;99.70
47310;DHT22;33046;52.270;6.832;2023-03-11T12:14:20;5.10;99.90
47310;DHT22;33046;52.270;6.832;2023-03-11T12:16:39;5.10;99.80
47310;DHT22;33046;52.270;6.832;2023-03-11T12:18:52;5.10;99.80
47310;DHT22;33046;52.270;6.832;2023-03-11T12:21:12;5.10;99.90
47310;DHT22;33046;52.270;6.832;2023-03-11T12:23:36;5.10;99.90
47310;DHT22;33046;52.270;6.832;2023-03-11T12:26:00;5.10;99.30
47310;DHT22;33046;52.270;6.832;2023-03-11T12:28:18;5.10;99.90
47310;DHT22;33046;52.270;6.832;2023-03-11T12:30:30;5.20;99.90
47310;DHT22;33046;52.270;6.832;2023-03-11T12:32:42;5.20;99.50
47310;DHT22;33046;52.270;6.832;2023-03-11T12:34:49;5.30;99.10
47310;DHT22;33046;52.270;6.832;2023-03-11T12:36:59;5.20;99.90
47310;DHT22;33046;52.270;6.832;2023-03-11T12:39:19;5.30;99.70
47310;DHT22;33046;52.270;6.832;2023-03-11T12:41:32;5.30;99.40
47310;DHT22;33046;52.270;6.832;2023-03-11T12:44:20;5.30;98.60
47310;DHT22;33046;52.270;6.832;2023-03-11T12:49:22;5.40;97.70
47310;DHT22;33046;52.270;6.832;2023-03-11T12:51:39;5.40;98.00
47310;DHT22;33046;52.270;6.832;2023-03-11T12:53:47;5.40;97.60
47310;DHT22;33046;52.270;6.832;2023-03-11T12:56:00;5.40;97.50
47310;DHT22;33046;52.270;6.832;2023-03-11T12:58:31;5.40;98.40
47310;DHT22;33046;52.270;6.832;2023-03-11T13:00:46;5.40;98.60
47310;DHT22;33046;52.270;6.832;2023-03-11T13:03:10;5.50;97.10
47310;DHT22;33046;52.270;6.832;2023-03-11T13:05:22;5.50;97.40
47310;DHT22;33046;52.270;6.832;2023-03-11T13:07:41;5.50;96.10
47310;DHT22;33046;52.270;6.832;2023-03-11T13:12:42;5.50;95.80
47310;DHT22;33046;52.270;6.832;2023-03-11T13:15:25;5.50;96.00
47310;DHT22;33046;52.270;6.832;2023-03-11T13:17:34;5.50;95.50
47310;DHT22;33046;52.270;6.832;2023-03-11T13:19:49;5.50;96.10
47310;DHT22;33046;52.270;6.832;2023-03-11T13:21:57;5.60;96.60
47310;DHT22;33046;52.270;6.832;2023-03-11T13:26:46;5.60;96.40
47310;DHT22;33046;52.270;6.832;2023-03-11T13:31:41;5.70;97.30
47310;DHT22;33046;52.270;6.832;2023-03-11T13:33:51;5.70;97.00
47310;DHT22;33046;52.270;6.832;2023-03-11T13:41:13;5.70;95.50
47310;DHT22;33046;52.270;6.832;2023-03-11T13:43:24;5.70;96.70
47310;DHT22;33046;52.270;6.832;2023-03-11T13:45:34;5.70;95.60
47310;DHT22;33046;52.270;6.832;2023-03-11T13:47:42;5.70;94.90
47310;DHT22;33046;52.270;6.832;2023-03-11T13:49:53;5.70;95.60
47310;DHT22;33046;52.270;6.832;2023-03-11T13:52:08;5.80;95.70
47310;DHT22;33046;52.270;6.832;2023-03-11T13:54:27;5.80;97.00
47310;DHT22;33046;52.270;6.832;2023-03-11T13:56:39;5.80;96.90
47310;DHT22;33046;52.270;6.832;2023-03-11T13:58:48;5.90;97.30
47310;DHT22;33046;52.270;6.832;2023-03-11T14:00:58;5.80;97.10
47310;DHT22;33046;52.270;6.832;2023-03-11T14:03:10;5.90;97.30
47310;DHT22;33046;52.270;6.832;2023-03-11T14:05:20;6.00;97.80
47310;DHT22;33046;52.270;6.832;2023-03-11T14:07:29;5.90;96.50